Time,TemperatureF,DewpointF,PressureIn,WindDirection,WindDirectionDegrees,WindSpeedMPH,WindSpeedGustMPH,Humidity,HourlyPrecipIn,Conditions,Clouds,dailyrainin,SoftwareType,DateUTC
2013-02-18 00:14:00,22.2,12.0,30.24,SE,127,0.0,1.0,65,0.00,,,0.00,weatherlink.com 1.10,2013-02-18 05:14:00,
2013-02-18 00:29:00,22.0,11.0,30.24,SE,127,0.0,1.0,64,0.00,,,0.00,weatherlink.com 1.10,2013-02-18 05:29:00,
2013-02-18 00:44:00,22.0,11.0,30.24,SE,127,0.0,2.0,63,0.00,,,0.00,weatherlink.com 1.10,2013-02-18 05:44:00,
2013-02-18 00:59:00,21.9,11.0,30.24,SE,128,0.0,1.0,64,0.00,,,0.00,weatherlink.com 1.10,2013-02-18 05:59:00,
2013-02-18 01:14:00,21.7,12.0,30.24,SE,129,0.0,2.0,66,0.00,,,0.00,weatherlink.com 1.10,2013-02-18 06:14:00,
2013-02-18 01:29:00,21.5,12.0,30.24,SE,141,0.0,3.0,66,0.00,,,0.00,weatherlink.com 1.10,2013-02-18 06:29:00,
2013-02-18 01:44:00,21.4,12.0,30.24,SE,141,0.0,1.0,67,0.00,,,0.00,weatherlink.com 1.10,2013-02-18 06:44:00,
2013-02-18 01:59:00,21.2,12.0,30.25,SE,141,0.0,2.0,67,0.00,,,0.00,weatherlink.com 1.10,2013-02-18 06:59:00,
2013-02-18 02:14:00,21.0,12.0,30.24,SE,141,0.0,2.0,67,0.00,,,0.00,weatherlink.com 1.10,2013-02-18 07:14:00,
2013-02-18 02:29:00,21.3,12.0,30.24,SE,141,0.0,0.0,68,0.00,,,0.00,weatherlink.com 1.10,2013-02-18 07:29:00,
2013-02-18 02:44:00,21.1,12.0,30.23,SE,141,0.0,0.0,69,0.00,,,0.00,weatherlink.com 1.10,2013-02-18 07:44:00,
2013-02-18 02:59:00,21.2,12.0,30.23,SE,141,0.0,1.0,69,0.00,,,0.00,weatherlink.com 1.10,2013-02-18 07:59:00,
2013-02-18 03:14:00,21.1,13.0,30.22,SE,141,0.0,1.0,70,0.00,,,0.00,weatherlink.com 1.10,2013-02-18 08:14:00,
2013-02-18 03:29:00,20.9,13.0,30.22,SE,141,0.0,1.0,70,0.00,,,0.00,weatherlink.com 1.10,2013-02-18 08:29:00,
2013-02-18 03:44:00,20.9,13.0,30.20,SE,141,0.0,1.0,71,0.00,,,0.00,weatherlink.com 1.10,2013-02-18 08:44:00,
2013-02-18 03:59:00,21.1,13.0,30.20,SE,141,0.0,0.0,71,0.00,,,0.00,weatherlink.com 1.10,2013-02-18 08:59:00,
2013-02-18 04:14:00,21.3,13.0,30.20,SE,141,0.0,0.0,71,0.00,,,0.00,weatherlink.com 1.10,2013-02-18 09:14:00,
2013-02-18 04:29:00,21.5,13.0,30.19,SE,141,0.0,0.0,71,0.00,,,0.00,weatherlink.com 1.10,2013-02-18 09:29:00,
2013-02-18 04:44:00,21.2,13.0,30.19,SE,141,0.0,0.0,72,0.00,,,0.00,weatherlink.com 1.10,2013-02-18 09:44:00,
2013-02-18 04:59:00,21.2,13.0,30.18,SE,141,0.0,0.0,72,0.00,,,0.00,weatherlink.com 1.10,2013-02-18 09:59:00,
2013-02-18 05:14:00,21.5,13.0,30.19,SE,141,0.0,0.0,71,0.00,,,0.00,weatherlink.com 1.10,2013-02-18 10:14:00,
2013-02-18 05:29:00,21.7,14.0,30.18,SE,141,0.0,0.0,71,0.00,,,0.00,weatherlink.com 1.10,2013-02-18 10:29:00,
2013-02-18 05:44:00,22.1,14.0,30.18,SE,140,0.0,0.0,70,0.00,,,0.00,weatherlink.com 1.10,2013-02-18 10:44:00,
2013-02-18 05:59:00,22.0,14.0,30.18,SE,141,0.0,0.0,71,0.00,,,0.00,weatherlink.com 1.10,2013-02-18 10:59:00,
2013-02-18 06:14:00,22.6,14.0,30.18,SE,141,0.0,0.0,70,0.00,,,0.00,weatherlink.com 1.10,2013-02-18 11:14:00,
2013-02-18 06:29:00,22.6,14.0,30.17,SE,141,0.0,0.0,69,0.00,,,0.00,weatherlink.com 1.10,2013-02-18 11:29:00,
2013-02-18 06:44:00,22.4,14.0,30.16,SE,141,0.0,0.0,69,0.00,,,0.00,weatherlink.com 1.10,2013-02-18 11:44:00,
2013-02-18 06:59:00,22.4,14.0,30.16,SE,141,0.0,1.0,70,0.00,,,0.00,weatherlink.com 1.10,2013-02-18 11:59:00,
2013-02-18 07:14:00,22.1,14.0,30.16,SE,141,0.0,0.0,70,0.00,,,0.00,weatherlink.com 1.10,2013-02-18 12:14:00,
2013-02-18 07:29:00,22.1,14.0,30.15,SE,141,0.0,1.0,72,0.00,,,0.00,weatherlink.com 1.10,2013-02-18 12:29:00,
2013-02-18 07:44:00,22.5,15.0,30.15,SE,138,0.0,1.0,72,0.00,,,0.00,weatherlink.com 1.10,2013-02-18 12:44:00,
2013-02-18 07:59:00,23.1,15.0,30.14,SE,135,0.0,1.0,70,0.00,,,0.00,weatherlink.com 1.10,2013-02-18 12:59:00,
2013-02-18 08:15:00,23.9,15.0,30.14,South,182,0.0,1.0,69,0.00,,,0.00,weatherlink.com 1.10,2013-02-18 13:15:00,
2013-02-18 08:30:00,25.3,16.0,30.14,ENE,65,0.0,2.0,67,0.00,,,0.00,weatherlink.com 1.10,2013-02-18 13:30:00,
2013-02-18 08:45:00,28.0,16.0,30.14,ESE,117,2.0,8.0,61,0.00,,,0.00,weatherlink.com 1.10,2013-02-18 13:45:00,
2013-02-18 09:00:00,29.5,17.0,30.13,SE,127,5.0,6.0,59,0.00,,,0.00,weatherlink.com 1.10,2013-02-18 14:00:00,
2013-02-18 09:15:00,31.0,16.0,30.12,East,92,5.0,9.0,55,0.00,,,0.00,weatherlink.com 1.10,2013-02-18 14:15:00,
2013-02-18 09:30:00,32.3,17.0,30.11,SE,127,4.0,10.0,54,0.00,,,0.00,weatherlink.com 1.10,2013-02-18 14:30:00,
2013-02-18 09:45:00,34.3,18.0,30.11,SSW,201,5.0,10.0,52,0.00,,,0.00,weatherlink.com 1.10,2013-02-18 14:45:00,
2013-02-18 10:00:00,35.2,19.0,30.10,SSW,208,2.0,8.0,51,0.00,,,0.00,weatherlink.com 1.10,2013-02-18 15:00:00,
2013-02-18 10:15:00,36.9,20.0,30.09,SSE,161,1.0,7.0,51,0.00,,,0.00,weatherlink.com 1.10,2013-02-18 15:15:00,
2013-02-18 10:30:00,38.8,21.0,30.08,ESE,121,3.0,7.0,50,0.00,,,0.00,weatherlink.com 1.10,2013-02-18 15:30:00,
2013-02-18 10:45:00,40.6,22.0,30.07,SSW,206,3.0,9.0,48,0.00,,,0.00,weatherlink.com 1.10,2013-02-18 15:45:00,
2013-02-18 11:00:00,42.7,24.0,30.07,SSE,160,3.0,9.0,47,0.00,,,0.00,weatherlink.com 1.10,2013-02-18 16:00:00,
2013-02-18 11:15:00,44.9,26.0,30.06,SSE,155,1.0,7.0,47,0.00,,,0.00,weatherlink.com 1.10,2013-02-18 16:15:00,
2013-02-18 11:30:00,48.3,29.0,30.05,SSW,199,8.0,13.0,48,0.00,,,0.00,weatherlink.com 1.10,2013-02-18 16:30:00,
2013-02-18 11:46:00,49.3,31.0,30.05,South,182,3.0,17.0,49,0.00,,,0.00,weatherlink.com 1.10,2013-02-18 16:46:00,
2013-02-18 12:01:00,49.9,32.0,30.04,SSW,192,4.0,17.0,50,0.00,,,0.00,weatherlink.com 1.10,2013-02-18 17:01:00,
2013-02-18 12:16:00,51.0,32.0,30.03,East,80,1.0,16.0,49,0.00,,,0.00,weatherlink.com 1.10,2013-02-18 17:16:00,
2013-02-18 12:31:00,52.0,33.0,30.02,South,187,8.0,14.0,48,0.00,,,0.00,weatherlink.com 1.10,2013-02-18 17:31:00,
2013-02-18 12:46:00,52.8,33.0,30.01,South,187,4.0,12.0,47,0.00,,,0.00,weatherlink.com 1.10,2013-02-18 17:46:00,
2013-02-18 13:01:00,54.1,33.0,30.00,South,172,6.0,16.0,45,0.00,,,0.00,weatherlink.com 1.10,2013-02-18 18:01:00,
2013-02-18 13:16:00,55.0,33.0,29.99,SSW,199,6.0,14.0,43,0.00,,,0.00,weatherlink.com 1.10,2013-02-18 18:16:00,
2013-02-18 13:31:00,56.2,33.0,29.97,East,90,6.0,14.0,41,0.00,,,0.00,weatherlink.com 1.10,2013-02-18 18:31:00,
2013-02-18 13:46:00,56.9,32.0,29.97,South,186,6.0,16.0,39,0.00,,,0.00,weatherlink.com 1.10,2013-02-18 18:46:00,
2013-02-18 14:01:00,57.1,32.0,29.96,SSW,211,10.0,19.0,39,0.00,,,0.00,weatherlink.com 1.10,2013-02-18 19:01:00,
2013-02-18 14:16:00,58.2,33.0,29.95,SSE,160,3.0,12.0,39,0.00,,,0.00,weatherlink.com 1.10,2013-02-18 19:16:00,
2013-02-18 14:31:00,57.3,32.0,29.95,ESE,112,8.0,17.0,38,0.00,,,0.00,weatherlink.com 1.10,2013-02-18 19:31:00,
2013-02-18 14:46:00,57.8,33.0,29.94,South,189,10.0,22.0,39,0.00,,,0.00,weatherlink.com 1.10,2013-02-18 19:46:00,
2013-02-18 15:01:00,58.3,33.0,29.91,SSE,163,4.0,14.0,39,0.00,,,0.00,weatherlink.com 1.10,2013-02-18 20:01:00,
2013-02-18 15:16:00,58.2,33.0,29.93,SW,224,5.0,17.0,39,0.00,,,0.00,weatherlink.com 1.10,2013-02-18 20:16:00,
2013-02-18 15:31:00,58.7,34.0,29.92,SSE,165,5.0,12.0,39,0.00,,,0.00,weatherlink.com 1.10,2013-02-18 20:31:00,
2013-02-18 15:46:00,59.3,35.0,29.91,South,191,8.0,16.0,40,0.00,,,0.00,weatherlink.com 1.10,2013-02-18 20:46:00,
2013-02-18 16:01:00,59.2,34.0,29.89,South,186,5.0,13.0,39,0.00,,,0.00,weatherlink.com 1.10,2013-02-18 21:01:00,
2013-02-18 16:16:00,59.6,34.0,29.88,SE,144,5.0,16.0,39,0.00,,,0.00,weatherlink.com 1.10,2013-02-18 21:16:00,
2013-02-18 16:31:00,60.2,35.0,29.88,SSE,162,6.0,14.0,39,0.00,,,0.00,weatherlink.com 1.10,2013-02-18 21:31:00,
2013-02-18 16:46:00,60.6,35.0,29.87,SE,127,5.0,13.0,39,0.00,,,0.00,weatherlink.com 1.10,2013-02-18 21:46:00,
2013-02-18 17:01:00,60.1,34.0,29.86,South,186,8.0,18.0,38,0.00,,,0.00,weatherlink.com 1.10,2013-02-18 22:01:00,
2013-02-18 17:17:00,59.8,35.0,29.86,SSW,209,5.0,10.0,39,0.00,,,0.00,weatherlink.com 1.10,2013-02-18 22:17:00,
2013-02-18 17:32:00,59.0,35.0,29.86,SE,143,6.0,10.0,40,0.00,,,0.00,weatherlink.com 1.10,2013-02-18 22:32:00,
2013-02-18 17:47:00,58.2,34.0,29.85,SE,127,2.0,13.0,41,0.00,,,0.00,weatherlink.com 1.10,2013-02-18 22:47:00,
2013-02-18 18:02:00,57.8,34.0,29.85,SSE,158,2.0,11.0,41,0.00,,,0.00,weatherlink.com 1.10,2013-02-18 23:02:00,
2013-02-18 18:17:00,57.6,34.0,29.84,East,94,5.0,10.0,41,0.00,,,0.00,weatherlink.com 1.10,2013-02-18 23:17:00,
2013-02-18 18:32:00,57.0,34.0,29.85,South,180,2.0,10.0,42,0.00,,,0.00,weatherlink.com 1.10,2013-02-18 23:32:00,
2013-02-18 18:47:00,56.6,34.0,29.84,SE,138,3.0,11.0,43,0.00,,,0.00,weatherlink.com 1.10,2013-02-18 23:47:00,
2013-02-18 19:02:00,56.2,34.0,29.84,SE,136,2.0,11.0,43,0.00,,,0.00,weatherlink.com 1.10,2013-02-19 00:02:00,
2013-02-18 19:17:00,56.0,34.0,29.84,SSE,153,2.0,9.0,43,0.00,,,0.00,weatherlink.com 1.10,2013-02-19 00:17:00,
2013-02-18 19:32:00,55.7,33.0,29.84,SSE,163,1.0,9.0,43,0.00,,,0.00,weatherlink.com 1.10,2013-02-19 00:32:00,
2013-02-18 19:47:00,55.2,34.0,29.83,SSE,163,3.0,11.0,45,0.00,,,0.00,weatherlink.com 1.10,2013-02-19 00:47:00,
2013-02-18 20:02:00,54.6,33.0,29.82,South,177,3.0,9.0,44,0.00,,,0.00,weatherlink.com 1.10,2013-02-19 01:02:00,
2013-02-18 20:17:00,54.2,33.0,29.82,SE,138,4.0,10.0,44,0.00,,,0.00,weatherlink.com 1.10,2013-02-19 01:17:00,
2013-02-18 20:32:00,54.0,32.0,29.82,SSE,150,5.0,10.0,44,0.00,,,0.00,weatherlink.com 1.10,2013-02-19 01:32:00,
2013-02-18 20:47:00,53.9,32.0,29.80,SSE,155,5.0,8.0,43,0.00,,,0.00,weatherlink.com 1.10,2013-02-19 01:47:00,
2013-02-18 21:02:00,53.9,32.0,29.80,SSW,203,8.0,10.0,44,0.00,,,0.00,weatherlink.com 1.10,2013-02-19 02:02:00,
2013-02-18 21:32:00,54.2,31.0,29.78,South,176,10.0,12.0,41,0.00,,,0.00,weatherlink.com 1.10,2013-02-19 02:32:00,
2013-02-18 21:47:00,54.3,30.0,29.78,SSE,155,8.0,14.0,40,0.00,,,0.00,weatherlink.com 1.10,2013-02-19 02:47:00,
2013-02-18 22:02:00,54.0,32.0,29.77,South,183,11.0,21.0,43,0.00,,,0.00,weatherlink.com 1.10,2013-02-19 03:02:00,
2013-02-18 22:17:00,52.0,36.0,29.79,South,172,7.0,23.0,55,0.00,,,0.00,weatherlink.com 1.10,2013-02-19 03:17:00,
2013-02-18 22:32:00,50.2,37.0,29.78,SE,138,2.0,13.0,62,0.01,,,0.01,weatherlink.com 1.10,2013-02-19 03:32:00,
2013-02-18 22:47:00,49.9,38.0,29.79,South,176,21.0,35.0,64,0.02,,,0.02,weatherlink.com 1.10,2013-02-19 03:47:00,
2013-02-18 23:17:00,46.7,40.0,29.77,South,179,4.0,15.0,76,0.05,,,0.05,weatherlink.com 1.10,2013-02-19 04:17:00,
2013-02-18 23:32:00,47.2,39.0,29.76,SE,133,4.0,17.0,74,0.04,,,0.05,weatherlink.com 1.10,2013-02-19 04:32:00,
2013-02-18 23:47:00,47.2,40.0,29.77,SSE,149,1.0,9.0,75,0.03,,,0.05,weatherlink.com 1.10,2013-02-19 04:47:00,